createdAt,value
2022-08-19T00:00:58.825Z,29
2022-08-19T00:01:58.952Z,27
2022-08-19T00:02:58.826Z,29
2022-08-19T00:03:58.834Z,28
2022-08-19T00:04:58.870Z,30
2022-08-19T00:05:58.906Z,29
2022-08-19T00:06:58.907Z,30
2022-08-19T00:07:58.837Z,28
2022-08-19T00:08:58.874Z,28
2022-08-19T00:09:58.861Z,28
2022-08-19T00:10:58.837Z,28
2022-08-19T00:11:58.837Z,27
2022-08-19T00:12:58.922Z,27
2022-08-19T00:13:58.941Z,28
2022-08-19T00:14:58.843Z,28
2022-08-19T00:15:58.844Z,27
2022-08-19T00:16:58.836Z,27
2022-08-19T00:17:58.832Z,25
2022-08-19T00:18:58.857Z,25
2022-08-19T00:19:58.913Z,25
2022-08-19T00:20:58.888Z,24
2022-08-19T00:21:58.824Z,21
2022-08-19T00:22:58.883Z,22
2022-08-19T00:23:58.881Z,19
2022-08-19T00:24:58.871Z,23
2022-08-19T00:25:58.835Z,23
2022-08-19T00:27:25.152Z,21
2022-08-19T00:27:58.995Z,20
2022-08-19T00:28:58.918Z,19
2022-08-19T00:29:58.903Z,20
2022-08-19T00:30:58.965Z,20
2022-08-19T00:31:59.052Z,21
2022-08-19T00:32:58.837Z,19
2022-08-19T00:33:58.934Z,22
2022-08-19T00:34:58.941Z,22
2022-08-19T00:35:58.937Z,23
2022-08-19T00:36:58.950Z,20
2022-08-19T00:37:58.951Z,21
2022-08-19T00:38:58.860Z,21
2022-08-19T00:39:58.891Z,21
2022-08-19T00:40:58.964Z,22
2022-08-19T00:41:58.976Z,21
2022-08-19T00:42:58.880Z,25
2022-08-19T00:43:58.886Z,24
2022-08-19T00:44:58.889Z,26
2022-08-19T00:45:58.896Z,25
2022-08-19T00:46:58.900Z,26
2022-08-19T00:47:58.911Z,27
2022-08-19T00:48:58.932Z,27
2022-08-19T00:49:58.837Z,27
2022-08-19T00:50:58.930Z,29
2022-08-19T00:51:58.943Z,27
2022-08-19T00:52:58.843Z,30
2022-08-19T00:53:58.864Z,29
2022-08-19T00:54:58.898Z,30
2022-08-19T00:55:58.900Z,28
2022-08-19T00:56:58.871Z,29
2022-08-19T00:57:58.848Z,29
2022-08-19T00:58:58.858Z,25
2022-08-19T01:00:02.478Z,25
2022-08-19T01:00:58.838Z,27
2022-08-19T01:01:59.088Z,26
2022-08-19T01:02:58.928Z,26
2022-08-19T01:03:59.063Z,28
2022-08-19T01:04:58.918Z,27
2022-08-19T01:05:58.945Z,26
2022-08-19T01:06:58.934Z,27
2022-08-19T01:07:58.847Z,26
2022-08-19T01:08:58.940Z,28
2022-08-19T01:09:58.945Z,29
2022-08-19T01:10:59.271Z,27
2022-08-19T01:11:58.958Z,30
2022-08-19T01:12:58.860Z,24
2022-08-19T01:13:58.910Z,25
2022-08-19T01:14:58.874Z,24
2022-08-19T01:15:59.031Z,25
2022-08-19T01:16:58.998Z,26
2022-08-19T01:17:58.897Z,28
2022-08-19T01:19:00.017Z,25
2022-08-19T01:19:58.861Z,28
2022-08-19T01:20:58.851Z,29
2022-08-19T01:21:58.935Z,28
2022-08-19T01:22:58.948Z,26
2022-08-19T01:23:58.958Z,28
2022-08-19T01:24:59.324Z,28
2022-08-19T01:25:58.968Z,29
2022-08-19T01:26:58.964Z,30
2022-08-19T01:28:01.689Z,27
2022-08-19T01:29:00.757Z,30
2022-08-19T01:29:58.975Z,29
2022-08-19T01:30:58.977Z,35
2022-08-19T01:31:58.905Z,32
2022-08-19T01:32:58.898Z,32
2022-08-19T01:33:58.860Z,34
2022-08-19T01:34:58.857Z,29
2022-08-19T01:35:58.912Z,32
2022-08-19T01:36:58.918Z,31
2022-08-19T01:37:58.926Z,33
2022-08-19T01:38:58.959Z,28
2022-08-19T01:39:59.016Z,28
2022-08-19T01:40:58.947Z,32
2022-08-19T01:41:58.940Z,27
2022-08-19T01:42:58.962Z,26
2022-08-19T01:44:09.883Z,30
2022-08-19T01:44:58.900Z,29
2022-08-19T01:45:58.880Z,28
2022-08-19T01:46:58.860Z,27
2022-08-19T01:48:02.098Z,28
2022-08-19T01:48:58.929Z,26
2022-08-19T01:49:58.908Z,27
2022-08-19T01:50:59.027Z,24
2022-08-19T01:51:59.018Z,22
2022-08-19T01:53:02.320Z,22
2022-08-19T01:53:58.951Z,21
2022-08-19T01:54:58.924Z,21
2022-08-19T01:55:58.867Z,19
2022-08-19T01:56:58.860Z,22
2022-08-19T01:57:58.906Z,21
2022-08-19T01:58:58.992Z,20
2022-08-19T01:59:58.964Z,20
2022-08-19T02:00:59.029Z,20
2022-08-19T02:01:58.911Z,20
2022-08-19T02:02:58.868Z,21
2022-08-19T02:03:58.889Z,20
2022-08-19T02:04:59.001Z,23
2022-08-19T02:05:59.015Z,26
2022-08-19T02:06:59.015Z,25
2022-08-19T02:07:58.915Z,24
2022-08-19T02:08:58.932Z,23
2022-08-19T02:09:58.928Z,24
2022-08-19T02:10:58.861Z,26
2022-08-19T02:11:58.933Z,23
2022-08-19T02:12:58.951Z,24
2022-08-19T02:13:58.883Z,24
2022-08-19T02:14:58.865Z,25
2022-08-19T02:15:58.967Z,26
2022-08-19T02:16:58.969Z,24
2022-08-19T02:17:58.874Z,23
2022-08-19T02:18:58.982Z,24
2022-08-19T02:19:59.002Z,25
2022-08-19T02:20:58.893Z,25
2022-08-19T02:21:58.865Z,26
2022-08-19T02:22:58.910Z,28
2022-08-19T02:23:58.928Z,29
2022-08-19T02:24:58.950Z,27
2022-08-19T02:25:59.110Z,28
2022-08-19T02:26:59.189Z,26
2022-08-19T02:27:58.933Z,29
2022-08-19T02:28:59.315Z,28
2022-08-19T02:29:59.030Z,29
2022-08-19T02:30:58.966Z,26
2022-08-19T02:31:58.959Z,28
2022-08-19T02:32:59.291Z,26
2022-08-19T02:33:58.941Z,27
2022-08-19T02:34:58.985Z,29
2022-08-19T02:35:58.891Z,25
2022-08-19T02:37:03.488Z,29
2022-08-19T02:37:58.904Z,29
2022-08-19T02:38:58.915Z,28
2022-08-19T02:39:58.981Z,25
2022-08-19T02:40:58.923Z,26
2022-08-19T02:41:58.933Z,29
2022-08-19T02:42:58.935Z,27
2022-08-19T02:44:28.872Z,28
2022-08-19T02:44:58.956Z,27
2022-08-19T02:45:58.881Z,28
2022-08-19T02:46:58.980Z,26
2022-08-19T02:47:58.914Z,25
2022-08-19T02:48:58.976Z,27
2022-08-19T02:49:58.990Z,27
2022-08-19T02:50:58.856Z,28
2022-08-19T02:51:58.894Z,27
2022-08-19T02:52:58.896Z,29
2022-08-19T02:53:58.923Z,27
2022-08-19T02:54:58.930Z,28
2022-08-19T02:55:58.931Z,29
2022-08-19T02:56:58.927Z,30
2022-08-19T02:57:58.952Z,28
2022-08-19T02:58:58.889Z,29
2022-08-19T02:59:58.950Z,32
2022-08-19T03:00:59.339Z,29
2022-08-19T03:01:58.913Z,30
2022-08-19T03:02:58.961Z,31
2022-08-19T03:03:58.965Z,33
2022-08-19T03:04:59.021Z,33
2022-08-19T03:05:58.978Z,36
2022-08-19T03:07:10.443Z,34
2022-08-19T03:07:58.994Z,32
2022-08-19T03:08:58.924Z,34
2022-08-19T03:09:58.881Z,38
2022-08-19T03:10:58.871Z,34
2022-08-19T03:11:58.916Z,35
2022-08-19T03:12:58.927Z,43
2022-08-19T03:13:58.887Z,37
2022-08-19T03:14:59.045Z,37
2022-08-19T03:15:58.945Z,39
2022-08-19T03:16:58.880Z,39
2022-08-19T03:17:58.953Z,44
2022-08-19T03:18:58.904Z,44
2022-08-19T03:19:58.975Z,44
2022-08-19T03:20:58.882Z,45
2022-08-19T03:21:58.928Z,43
2022-08-19T03:22:58.975Z,45
2022-08-19T03:23:58.879Z,44
2022-08-19T03:24:58.893Z,42
2022-08-19T03:26:15.669Z,47
2022-08-19T03:26:58.909Z,45
2022-08-19T03:27:58.903Z,44
2022-08-19T03:28:59.155Z,42
2022-08-19T03:30:04.584Z,46
2022-08-19T03:30:58.933Z,47
2022-08-19T03:31:58.940Z,48
2022-08-19T03:32:59.006Z,46
2022-08-19T03:33:59.409Z,48
2022-08-19T03:34:58.996Z,46
2022-08-19T03:35:58.914Z,42
2022-08-19T03:36:58.975Z,41
2022-08-19T03:37:58.991Z,41
2022-08-19T03:38:59.688Z,39
2022-08-19T03:39:58.999Z,37
2022-08-19T03:40:58.894Z,33
2022-08-19T03:42:30.078Z,31
2022-08-19T03:42:59.057Z,33
2022-08-19T03:43:59.034Z,31
2022-08-19T03:44:58.900Z,32
2022-08-19T03:45:58.930Z,31
2022-08-19T03:46:58.870Z,32
2022-08-19T03:47:58.865Z,31
2022-08-19T03:48:58.875Z,30
2022-08-19T03:49:58.942Z,31
2022-08-19T03:50:58.964Z,31
2022-08-19T03:51:58.899Z,32
2022-08-19T03:52:58.864Z,32
2022-08-19T03:53:58.907Z,34
2022-08-19T03:54:59.093Z,34
2022-08-19T03:55:58.895Z,35
2022-08-19T03:56:59.010Z,36
2022-08-19T03:57:59.414Z,37
2022-08-19T03:58:58.924Z,37
2022-08-19T04:00:13.041Z,34
2022-08-19T04:00:58.949Z,35
2022-08-19T04:01:58.884Z,37
2022-08-19T04:03:00.897Z,38
2022-08-19T04:03:59.062Z,35
2022-08-19T04:04:58.959Z,35
2022-08-19T04:05:58.965Z,37
2022-08-19T04:06:58.953Z,36
2022-08-19T04:07:58.961Z,36
2022-08-19T04:08:58.969Z,38
2022-08-19T04:09:59.000Z,35
2022-08-19T04:10:58.983Z,36
2022-08-19T04:11:59.012Z,36
2022-08-19T04:12:58.890Z,36
2022-08-19T04:13:58.907Z,36
2022-08-19T04:14:58.931Z,37
2022-08-19T04:15:58.888Z,36
2022-08-19T04:16:58.929Z,36
2022-08-19T04:17:59.034Z,37
2022-08-19T04:18:59.093Z,36
2022-08-19T04:19:58.976Z,36
2022-08-19T04:20:59.052Z,36
2022-08-19T04:21:59.129Z,36
2022-08-19T04:22:59.150Z,35
2022-08-19T04:23:59.239Z,39
2022-08-19T04:24:59.276Z,38
2022-08-19T04:25:59.147Z,39
2022-08-19T04:26:59.242Z,41
2022-08-19T04:27:58.886Z,37
2022-08-19T04:28:58.895Z,39
2022-08-19T04:29:58.922Z,37
2022-08-19T04:30:58.914Z,38
2022-08-19T04:31:59.125Z,38
2022-08-19T04:32:59.031Z,36
2022-08-19T04:33:58.925Z,36
2022-08-19T04:35:02.354Z,39
2022-08-19T04:35:58.945Z,37
2022-08-19T04:36:58.938Z,35
2022-08-19T04:37:58.955Z,38
2022-08-19T04:38:58.955Z,36
2022-08-19T04:39:59.013Z,37
2022-08-19T04:40:58.991Z,37
2022-08-19T04:41:58.895Z,36
2022-08-19T04:42:58.877Z,35
2022-08-19T04:44:03.736Z,32
2022-08-19T04:44:58.919Z,33
2022-08-19T04:46:01.104Z,33
2022-08-19T04:46:58.932Z,36
2022-08-19T04:48:27.229Z,34
2022-08-19T04:48:58.917Z,31
2022-08-19T04:49:58.905Z,32
2022-08-19T04:50:58.940Z,31
2022-08-19T04:51:58.953Z,31
2022-08-19T04:52:58.949Z,32
2022-08-19T04:53:59.177Z,31
2022-08-19T04:54:59.131Z,33
2022-08-19T04:55:59.215Z,31
2022-08-19T04:56:59.212Z,33
2022-08-19T04:57:59.392Z,34
2022-08-19T04:58:59.238Z,38
2022-08-19T04:59:59.184Z,32
2022-08-19T05:00:59.049Z,35
2022-08-19T05:01:58.906Z,36
2022-08-19T05:02:58.896Z,36
2022-08-19T05:03:59.019Z,36
2022-08-19T05:04:58.937Z,40
2022-08-19T05:05:58.929Z,36
2022-08-19T05:07:01.087Z,34
2022-08-19T05:07:59.085Z,37
2022-08-19T05:08:58.883Z,37
2022-08-19T05:09:59.356Z,35
2022-08-19T05:10:58.967Z,33
2022-08-19T05:11:58.963Z,36
2022-08-19T05:12:58.963Z,35
2022-08-19T05:13:58.945Z,36
2022-08-19T05:14:59.003Z,35
2022-08-19T05:15:58.904Z,35
2022-08-19T05:17:25.713Z,38
2022-08-19T05:17:59.019Z,35
2022-08-19T05:18:58.905Z,36
2022-08-19T05:19:58.928Z,36
2022-08-19T05:20:59.034Z,34
2022-08-19T05:21:58.929Z,36
2022-08-19T05:22:58.894Z,36
2022-08-19T05:23:59.165Z,33
2022-08-19T05:25:12.284Z,36
2022-08-19T05:25:58.959Z,36
2022-08-19T05:26:58.885Z,35
2022-08-19T05:27:58.964Z,37
2022-08-19T05:28:58.980Z,36
2022-08-19T05:29:58.994Z,38
2022-08-19T05:30:58.990Z,37
2022-08-19T05:31:59.017Z,39
2022-08-19T05:32:58.927Z,40
2022-08-19T05:33:58.901Z,41
2022-08-19T05:34:59.032Z,39
2022-08-19T05:35:58.922Z,39
2022-08-19T05:36:58.890Z,40
2022-08-19T05:37:59.210Z,38
2022-08-19T05:38:59.158Z,38
2022-08-19T05:39:59.069Z,39
2022-08-19T05:40:58.908Z,39
2022-08-19T05:41:58.951Z,38
2022-08-19T05:42:58.959Z,38
2022-08-19T05:43:58.970Z,36
2022-08-19T05:44:58.981Z,37
2022-08-19T05:45:58.921Z,38
2022-08-19T05:46:58.888Z,38
2022-08-19T05:47:59.061Z,36
2022-08-19T05:48:58.996Z,39
2022-08-19T05:49:58.959Z,36
2022-08-19T05:50:59.539Z,40
2022-08-19T05:51:58.973Z,34
2022-08-19T05:52:58.921Z,38
2022-08-19T05:53:58.943Z,38
2022-08-19T05:54:59.024Z,36
2022-08-19T05:55:59.046Z,36
2022-08-19T05:56:58.974Z,34
2022-08-19T05:57:58.941Z,34
2022-08-19T05:58:58.975Z,31
2022-08-19T05:59:59.302Z,33
2022-08-19T06:00:58.888Z,34
2022-08-19T06:01:58.977Z,35
2022-08-19T06:02:59.532Z,34
2022-08-19T06:03:59.046Z,34
2022-08-19T06:04:59.082Z,36
2022-08-19T06:05:58.902Z,34
2022-08-19T06:06:58.914Z,33
2022-08-19T06:07:58.915Z,34
2022-08-19T06:08:58.923Z,33
2022-08-19T06:10:00.830Z,33
2022-08-19T06:10:59.038Z,32
2022-08-19T06:11:58.947Z,32
2022-08-19T06:12:58.900Z,32
2022-08-19T06:14:00.246Z,31
2022-08-19T06:15:01.158Z,35
2022-08-19T06:15:58.902Z,37
2022-08-19T06:17:00.279Z,34
2022-08-19T06:17:58.939Z,35
2022-08-19T06:18:58.981Z,33
2022-08-19T06:19:59.016Z,33
2022-08-19T06:20:58.999Z,35
2022-08-19T06:21:58.906Z,38
2022-08-19T06:22:58.909Z,37
2022-08-19T06:23:59.038Z,41
2022-08-19T06:24:59.182Z,37
2022-08-19T06:25:58.891Z,39
2022-08-19T06:27:01.381Z,39
2022-08-19T06:28:14.475Z,41
2022-08-19T06:28:58.891Z,42
2022-08-19T06:29:58.914Z,46
2022-08-19T06:30:58.959Z,45
2022-08-19T06:31:58.972Z,41
2022-08-19T06:32:58.911Z,43
2022-08-19T06:33:58.987Z,46
2022-08-19T06:34:59.067Z,43
2022-08-19T06:35:58.994Z,45
2022-08-19T06:36:59.006Z,44
2022-08-19T06:37:59.191Z,48
2022-08-19T06:38:59.223Z,43
2022-08-19T06:39:59.029Z,43
2022-08-19T06:40:59.039Z,43
2022-08-19T06:41:59.194Z,44
2022-08-19T06:42:59.437Z,45
2022-08-19T06:43:59.303Z,48
2022-08-19T06:44:59.288Z,49
2022-08-19T06:45:58.959Z,47
2022-08-19T06:46:58.902Z,44
2022-08-19T06:47:58.984Z,44
2022-08-19T06:48:59.009Z,49
2022-08-19T06:50:01.260Z,44
2022-08-19T06:50:58.929Z,47
2022-08-19T06:51:58.963Z,48
2022-08-19T06:53:01.557Z,45
2022-08-19T06:53:58.909Z,45
2022-08-19T06:54:59.721Z,47
2022-08-19T06:55:59.024Z,51
2022-08-19T06:56:58.923Z,48
2022-08-19T06:57:58.936Z,50
2022-08-19T06:58:59.045Z,46
2022-08-19T06:59:59.077Z,44
2022-08-19T07:00:58.950Z,45
2022-08-19T07:01:58.903Z,47
2022-08-19T07:03:01.813Z,47
2022-08-19T07:03:58.906Z,50
2022-08-19T07:04:58.951Z,53
2022-08-19T07:05:58.956Z,47
2022-08-19T07:06:58.938Z,47
2022-08-19T07:08:04.620Z,43
2022-08-19T07:08:59.005Z,45
2022-08-19T07:10:01.866Z,44
2022-08-19T07:10:59.018Z,45
2022-08-19T07:11:59.025Z,47
2022-08-19T07:12:58.968Z,43
2022-08-19T07:13:59.041Z,46
2022-08-19T07:14:59.051Z,48
2022-08-19T07:15:58.904Z,41
2022-08-19T07:16:58.941Z,45
2022-08-19T07:17:58.909Z,47
2022-08-19T07:18:58.962Z,44
2022-08-19T07:20:05.081Z,46
2022-08-19T07:20:58.979Z,43
2022-08-19T07:21:58.982Z,43
2022-08-19T07:22:58.997Z,46
2022-08-19T07:23:59.541Z,44
2022-08-19T07:24:59.030Z,41
2022-08-19T07:25:59.044Z,40
2022-08-19T07:26:59.015Z,42
2022-08-19T07:27:59.386Z,43
2022-08-19T07:28:58.935Z,45
2022-08-19T07:29:59.724Z,41
2022-08-19T07:30:58.906Z,44
2022-08-19T07:31:58.946Z,44
2022-08-19T07:32:58.945Z,42
2022-08-19T07:33:59.053Z,42
2022-08-19T07:34:59.418Z,41
2022-08-19T07:35:58.917Z,40
2022-08-19T07:36:58.973Z,44
2022-08-19T07:37:59.117Z,34
2022-08-19T07:38:59.091Z,43
2022-08-19T07:39:59.052Z,43
2022-08-19T07:40:59.331Z,43
2022-08-19T07:41:59.022Z,39
2022-08-19T07:42:59.237Z,38
2022-08-19T07:43:59.017Z,41
2022-08-19T07:44:58.976Z,42
2022-08-19T07:45:58.994Z,43
2022-08-19T07:46:59.022Z,39
2022-08-19T07:48:05.181Z,39
2022-08-19T07:48:59.051Z,41
2022-08-19T07:49:58.980Z,37
2022-08-19T07:50:58.997Z,39
2022-08-19T07:51:58.923Z,41
2022-08-19T07:52:58.980Z,39
2022-08-19T07:53:58.912Z,42
2022-08-19T07:54:59.014Z,41
2022-08-19T07:55:59.029Z,37
2022-08-19T07:56:58.922Z,41
2022-08-19T07:57:58.955Z,42
2022-08-19T07:58:59.022Z,43
2022-08-19T07:59:59.059Z,40
2022-08-19T08:00:58.939Z,41
2022-08-19T08:01:59.059Z,37
2022-08-19T08:02:58.982Z,40
2022-08-19T08:03:58.933Z,42
2022-08-19T08:04:58.949Z,40
2022-08-19T08:05:58.961Z,40
2022-08-19T08:06:59.364Z,46
2022-08-19T08:07:59.098Z,41
2022-08-19T08:08:58.953Z,40
2022-08-19T08:09:58.980Z,41
2022-08-19T08:10:58.921Z,40
2022-08-19T08:12:01.913Z,40
2022-08-19T08:13:09.660Z,36
2022-08-19T08:14:01.072Z,38
2022-08-19T08:14:59.012Z,38
2022-08-19T08:15:59.249Z,40
2022-08-19T08:16:59.184Z,40
2022-08-19T08:17:58.948Z,38
2022-08-19T08:18:58.936Z,42
2022-08-19T08:19:59.049Z,40
2022-08-19T08:20:58.912Z,41
2022-08-19T08:21:58.928Z,40
2022-08-19T08:22:58.984Z,42
2022-08-19T08:24:58.945Z,42
2022-08-19T08:25:58.917Z,39
2022-08-19T08:26:58.913Z,39
2022-08-19T08:27:58.917Z,40
2022-08-19T08:28:58.919Z,39
2022-08-19T08:29:59.000Z,36
2022-08-19T08:30:58.982Z,39
2022-08-19T08:32:00.275Z,42
2022-08-19T08:32:58.928Z,38
2022-08-19T08:33:58.948Z,34
2022-08-19T08:34:58.969Z,35
2022-08-19T08:35:58.953Z,30
2022-08-19T08:36:59.055Z,31
2022-08-19T08:37:59.080Z,35
2022-08-19T08:38:58.989Z,40
2022-08-19T08:39:59.107Z,37
2022-08-19T08:40:58.964Z,34
2022-08-19T08:41:58.981Z,35
2022-08-19T08:42:58.999Z,36
2022-08-19T08:43:59.014Z,35
2022-08-19T08:44:59.227Z,35
2022-08-19T08:45:59.036Z,38
2022-08-19T08:46:59.028Z,36
2022-08-19T08:47:59.033Z,34
2022-08-19T08:48:58.913Z,35
2022-08-19T08:49:59.032Z,35
2022-08-19T08:50:59.071Z,31
2022-08-19T08:51:59.813Z,34
2022-08-19T08:52:58.955Z,32
2022-08-19T08:53:58.957Z,30
2022-08-19T08:54:59.028Z,34
2022-08-19T08:55:58.928Z,35
2022-08-19T08:56:58.977Z,36
2022-08-19T08:57:58.987Z,32
2022-08-19T08:58:58.969Z,29
2022-08-19T08:59:58.997Z,28
2022-08-19T09:00:59.026Z,32
2022-08-19T09:01:59.099Z,27
2022-08-19T09:02:59.245Z,24
2022-08-19T09:04:02.843Z,31
2022-08-19T09:04:59.051Z,28
2022-08-19T09:05:59.045Z,24
2022-08-19T09:06:58.925Z,25
2022-08-19T09:07:58.914Z,23
2022-08-19T09:08:59.067Z,28
2022-08-19T09:09:58.963Z,29
2022-08-19T09:10:59.081Z,30
2022-08-19T09:11:59.104Z,30
2022-08-19T09:12:58.981Z,29
2022-08-19T09:13:58.928Z,28
2022-08-19T09:14:58.997Z,28
2022-08-19T09:15:59.217Z,23
2022-08-19T09:16:59.009Z,29
2022-08-19T09:17:59.041Z,27
2022-08-19T09:18:58.980Z,24
2022-08-19T09:19:59.026Z,22
2022-08-19T09:20:59.053Z,23
2022-08-19T09:21:59.030Z,23
2022-08-19T09:22:58.949Z,19
2022-08-19T09:23:58.952Z,24
2022-08-19T09:24:58.946Z,21
2022-08-19T09:25:59.087Z,19
2022-08-19T09:26:58.986Z,22
2022-08-19T09:28:02.781Z,22
2022-08-19T09:28:58.948Z,23
2022-08-19T09:29:59.086Z,23
2022-08-19T09:30:58.962Z,22
2022-08-19T09:31:58.912Z,19
2022-08-19T09:32:58.981Z,21
2022-08-19T09:33:59.017Z,23
2022-08-19T09:34:59.009Z,18
2022-08-19T09:35:58.938Z,22
2022-08-19T09:36:59.055Z,20
2022-08-19T09:37:59.519Z,17
2022-08-19T09:38:59.042Z,19
2022-08-19T09:39:59.120Z,16
2022-08-19T09:40:59.064Z,12
2022-08-19T09:41:59.058Z,13
2022-08-19T09:42:59.147Z,14
2022-08-19T09:43:59.074Z,15
2022-08-19T09:45:00.048Z,15
2022-08-19T09:45:59.324Z,16
2022-08-19T09:46:59.253Z,16
2022-08-19T09:47:59.258Z,15
2022-08-19T09:48:58.924Z,15
2022-08-19T09:49:59.019Z,13
2022-08-19T09:50:59.029Z,15
2022-08-19T09:51:58.922Z,12
2022-08-19T09:52:59.036Z,13
2022-08-19T09:53:58.991Z,11
2022-08-19T09:54:58.979Z,13
2022-08-19T09:55:59.081Z,12
2022-08-19T09:56:59.097Z,10
2022-08-19T09:57:58.955Z,11
2022-08-19T09:58:58.985Z,14
2022-08-19T09:59:58.944Z,12
2022-08-19T10:00:59.135Z,13
2022-08-19T10:02:03.827Z,15
2022-08-19T10:02:58.940Z,16
2022-08-19T10:03:58.934Z,16
2022-08-19T10:04:58.934Z,14
2022-08-19T10:05:58.948Z,14
2022-08-19T10:06:58.944Z,14
2022-08-19T10:07:58.967Z,18
2022-08-19T10:08:59.024Z,15
2022-08-19T10:09:59.029Z,16
2022-08-19T10:10:59.245Z,15
2022-08-19T10:11:59.065Z,19
2022-08-19T10:12:58.947Z,17
2022-08-19T10:13:58.959Z,17
2022-08-19T10:14:58.990Z,18
2022-08-19T10:15:59.053Z,19
2022-08-19T10:16:59.299Z,23
2022-08-19T10:17:58.999Z,20
2022-08-19T10:18:59.349Z,19
2022-08-19T10:19:59.134Z,25
2022-08-19T10:20:59.139Z,25
2022-08-19T10:22:00.563Z,31
2022-08-19T10:22:59.137Z,23
2022-08-19T10:23:59.197Z,23
2022-08-19T10:24:59.285Z,23
2022-08-19T10:25:59.303Z,20
2022-08-19T10:26:59.925Z,23
2022-08-19T10:27:59.368Z,23
2022-08-19T10:28:59.250Z,21
2022-08-19T10:29:59.007Z,22
2022-08-19T10:30:58.987Z,23
2022-08-19T10:32:00.656Z,23
2022-08-19T10:32:58.975Z,21
2022-08-19T10:33:58.988Z,20
2022-08-19T10:34:58.933Z,21
2022-08-19T10:35:59.012Z,22
2022-08-19T10:37:00.471Z,22
2022-08-19T10:38:00.288Z,20
2022-08-19T10:38:58.949Z,23
2022-08-19T10:39:59.086Z,22
2022-08-19T10:40:58.961Z,26
2022-08-19T10:41:58.977Z,23
2022-08-19T10:42:59.040Z,21
2022-08-19T10:43:58.989Z,20
2022-08-19T10:44:58.955Z,22
2022-08-19T10:45:58.981Z,21
2022-08-19T10:46:58.975Z,19
2022-08-19T10:47:58.948Z,21
2022-08-19T10:48:58.975Z,18
2022-08-19T10:49:59.084Z,21
2022-08-19T10:50:59.111Z,20
2022-08-19T10:51:59.083Z,21
2022-08-19T10:52:58.955Z,22
2022-08-19T10:53:59.032Z,20
2022-08-19T10:54:59.044Z,24
2022-08-19T10:55:59.046Z,23
2022-08-19T10:56:59.043Z,24
2022-08-19T10:58:02.568Z,20
2022-08-19T10:58:58.974Z,27
2022-08-19T10:59:59.051Z,29
2022-08-19T11:00:59.092Z,26
2022-08-19T11:01:58.960Z,26
2022-08-19T11:02:58.937Z,30
2022-08-19T11:03:59.000Z,29
2022-08-19T11:05:04.421Z,29
2022-08-19T11:05:58.995Z,25
2022-08-19T11:06:58.989Z,27
2022-08-19T11:07:58.989Z,25
2022-08-19T11:08:59.007Z,30
2022-08-19T11:09:58.949Z,30
2022-08-19T11:10:59.035Z,28
2022-08-19T11:11:59.041Z,27
2022-08-19T11:12:59.040Z,24
2022-08-19T11:13:58.948Z,24
2022-08-19T11:14:58.947Z,22
2022-08-19T11:16:00.883Z,21
2022-08-19T11:16:58.948Z,21
2022-08-19T11:17:59.073Z,23
2022-08-19T11:18:59.077Z,22
2022-08-19T11:19:58.975Z,26
2022-08-19T11:20:58.991Z,25
2022-08-19T11:22:00.208Z,26
2022-08-19T11:22:58.946Z,23
2022-08-19T11:23:59.015Z,25
2022-08-19T11:24:59.115Z,21
2022-08-19T11:25:59.020Z,19
2022-08-19T11:26:58.960Z,20
2022-08-19T11:27:58.976Z,20
2022-08-19T11:28:59.057Z,17
2022-08-19T11:29:59.044Z,19
2022-08-19T11:30:59.074Z,18
2022-08-19T11:31:59.058Z,18
2022-08-19T11:32:59.061Z,16
2022-08-19T11:33:59.078Z,14
2022-08-19T11:34:58.984Z,19
2022-08-19T11:35:58.994Z,16
2022-08-19T11:36:58.973Z,18
2022-08-19T11:37:58.985Z,13
2022-08-19T11:38:59.116Z,16
2022-08-19T11:39:59.121Z,19
2022-08-19T11:40:59.017Z,18
2022-08-19T11:41:59.308Z,20
2022-08-19T11:42:59.323Z,16
2022-08-19T11:43:59.381Z,21
2022-08-19T11:44:59.208Z,25
2022-08-19T11:45:59.244Z,19
2022-08-19T11:46:59.046Z,17
2022-08-19T11:47:59.049Z,18
2022-08-19T11:48:58.964Z,17
2022-08-19T11:49:58.965Z,16
2022-08-19T11:50:58.961Z,16
2022-08-19T11:51:58.982Z,16
2022-08-19T11:52:59.079Z,13
2022-08-19T11:53:59.108Z,15
2022-08-19T11:54:58.979Z,14
2022-08-19T11:55:59.030Z,14
2022-08-19T11:56:59.060Z,14
2022-08-19T11:57:59.100Z,14
2022-08-19T11:58:59.020Z,11
2022-08-19T11:59:59.029Z,12
2022-08-19T12:00:59.062Z,16
2022-08-19T12:01:59.122Z,15
2022-08-19T12:02:58.965Z,13
2022-08-19T12:03:59.129Z,15
2022-08-19T12:04:59.058Z,16
2022-08-19T12:05:59.080Z,14
2022-08-19T12:06:59.070Z,15
2022-08-19T12:07:59.074Z,15
2022-08-19T12:08:59.029Z,15
2022-08-19T12:09:59.058Z,16
2022-08-19T12:10:59.114Z,13
2022-08-19T12:11:59.056Z,15
2022-08-19T12:12:59.182Z,15
2022-08-19T12:13:59.142Z,15
2022-08-19T12:14:59.257Z,16
2022-08-19T12:15:59.169Z,13
2022-08-19T12:16:59.335Z,15
2022-08-19T12:17:59.168Z,14
2022-08-19T12:18:58.962Z,14
2022-08-19T12:19:59.383Z,16
2022-08-19T12:20:59.344Z,17
2022-08-19T12:21:59.076Z,15
2022-08-19T12:22:59.080Z,17
2022-08-19T12:23:58.970Z,13
2022-08-19T12:24:59.030Z,14
2022-08-19T12:25:58.979Z,13
2022-08-19T12:27:00.885Z,16
2022-08-19T12:27:59.430Z,20
2022-08-19T12:28:59.001Z,13
2022-08-19T12:29:59.021Z,18
2022-08-19T12:30:59.036Z,18
2022-08-19T12:31:59.024Z,20
2022-08-19T12:32:58.967Z,16
2022-08-19T12:33:59.059Z,17
2022-08-19T12:34:59.064Z,18
2022-08-19T12:35:59.068Z,15
2022-08-19T12:36:58.990Z,19
2022-08-19T12:37:59.368Z,18
2022-08-19T12:38:59.156Z,19
2022-08-19T12:39:59.153Z,16
2022-08-19T12:41:00.426Z,17
2022-08-19T12:41:59.020Z,15
2022-08-19T12:42:59.108Z,14
2022-08-19T12:43:59.014Z,14
2022-08-19T12:44:59.006Z,14
2022-08-19T12:45:59.097Z,13
2022-08-19T12:46:59.018Z,11
2022-08-19T12:47:59.036Z,15
2022-08-19T12:48:59.015Z,13
2022-08-19T12:49:59.017Z,11
2022-08-19T12:50:59.064Z,10
2022-08-19T12:51:58.970Z,10
2022-08-19T12:52:59.046Z,13
2022-08-19T12:53:59.082Z,12
2022-08-19T12:54:59.072Z,11
2022-08-19T12:55:59.051Z,11
2022-08-19T12:56:59.050Z,10
2022-08-19T12:57:58.987Z,11
2022-08-19T12:58:58.993Z,11
2022-08-19T12:59:59.016Z,12
2022-08-19T13:00:59.119Z,10
2022-08-19T13:01:59.022Z,9
2022-08-19T13:02:59.033Z,9
2022-08-19T13:03:59.027Z,9
2022-08-19T13:04:58.997Z,11
2022-08-19T13:05:59.090Z,11
2022-08-19T13:06:59.264Z,11
2022-08-19T13:07:58.991Z,10
2022-08-19T13:08:59.849Z,12
2022-08-19T13:09:59.070Z,10
2022-08-19T13:10:59.080Z,8
2022-08-19T13:11:58.976Z,7
2022-08-19T13:12:58.967Z,10
2022-08-19T13:13:59.089Z,7
2022-08-19T13:14:59.005Z,7
2022-08-19T13:15:59.060Z,11
2022-08-19T13:16:59.033Z,11
2022-08-19T13:17:59.125Z,8
2022-08-19T13:18:59.031Z,8
2022-08-19T13:19:59.029Z,11
2022-08-19T13:20:59.017Z,8
2022-08-19T13:22:00.430Z,10
2022-08-19T13:22:59.003Z,11
2022-08-19T13:23:59.060Z,11
2022-08-19T13:24:59.069Z,10
2022-08-19T13:25:59.078Z,10
2022-08-19T13:26:59.069Z,9
2022-08-19T13:27:59.085Z,9
2022-08-19T13:28:59.080Z,8
2022-08-19T13:29:59.082Z,10
2022-08-19T13:30:59.084Z,10
2022-08-19T13:31:59.099Z,8
2022-08-19T13:32:59.014Z,9
2022-08-19T13:33:59.024Z,8
2022-08-19T13:34:59.029Z,10
2022-08-19T13:35:59.003Z,13
2022-08-19T13:36:59.036Z,11
2022-08-19T13:37:59.141Z,9
2022-08-19T13:38:59.055Z,9
2022-08-19T13:39:59.090Z,9
2022-08-19T13:40:59.068Z,10
2022-08-19T13:41:58.986Z,8
2022-08-19T13:42:59.072Z,8
2022-08-19T13:43:59.006Z,7
2022-08-19T13:44:59.214Z,9
2022-08-19T13:45:59.138Z,11
2022-08-19T13:46:58.999Z,9
2022-08-19T13:47:59.873Z,10
2022-08-19T13:48:58.991Z,11
2022-08-19T13:49:58.993Z,8
2022-08-19T13:50:59.015Z,11
2022-08-19T13:51:59.158Z,8
2022-08-19T13:52:59.068Z,7
2022-08-19T13:53:58.998Z,9
2022-08-19T13:54:59.004Z,8
2022-08-19T13:55:59.096Z,7
2022-08-19T13:56:59.010Z,9
2022-08-19T13:57:59.074Z,6
2022-08-19T13:58:59.474Z,10
2022-08-19T13:59:59.053Z,9
2022-08-19T14:00:59.080Z,7
2022-08-19T14:01:58.992Z,8
2022-08-19T14:02:59.219Z,7
2022-08-19T14:03:59.222Z,8
2022-08-19T14:04:59.224Z,7
2022-08-19T14:05:59.136Z,7
2022-08-19T14:06:59.128Z,10
2022-08-19T14:07:59.007Z,8
2022-08-19T14:08:59.022Z,9
2022-08-19T14:09:59.026Z,7
2022-08-19T14:10:59.017Z,8
2022-08-19T14:11:58.996Z,8
2022-08-19T14:12:59.047Z,8
2022-08-19T14:13:59.078Z,7
2022-08-19T14:14:59.009Z,8
2022-08-19T14:15:59.053Z,9
2022-08-19T14:16:59.085Z,8
2022-08-19T14:17:59.009Z,9
2022-08-19T14:18:59.005Z,7